Larkfield, United Kingdom
Current Conditions -  °F | °C
As of 4:50 PM on Friday 31 Oct 2014 (Local Time) from EGKB Reporting Station
Clear Clear  
Wind Chill: 17°   Ceiling: Unl
Heat Index: 17°   Visibility: 6mi
Dew Point: 11°   Wind: 14mph
Humidity: 68%   Direction: 160°SSE
Pressure: 30"   Gusts: NA
Location:  51.29°N, 0.43°E
Report Text: EGKB 311650Z 16012KT CAVOK 17/11 Q1016
Loading
Personal Weather Stations






























Interactive Weather Map
Tropical Storm Tracking
New forecast layout! Learn more

10-Day Weather Forecast

Advertisements
Track Severe Weather on mobile